createdAt,value
2018-07-11T00:01:03.379Z,57.73
2018-07-11T00:03:49.880Z,57.50
2018-07-11T00:06:22.496Z,56.97
2018-07-11T00:08:54.059Z,57.04
2018-07-11T00:11:26.063Z,56.76
2018-07-11T00:13:58.194Z,57.05
2018-07-11T00:16:29.560Z,57.58
2018-07-11T00:19:00.941Z,57.17
2018-07-11T00:37:25.684Z,58.97
2018-07-11T00:39:57.213Z,58.56
2018-07-11T00:42:28.922Z,57.50
2018-07-11T00:45:00.778Z,58.25
2018-07-11T00:47:32.594Z,58.78
2018-07-11T00:50:03.909Z,58.02
2018-07-11T00:52:36.560Z,58.42
2018-07-11T00:55:08.114Z,59.14
2018-07-11T00:57:42.133Z,59.13
2018-07-11T01:00:13.607Z,59.86
2018-07-11T01:02:45.506Z,59.99
2018-07-11T01:05:17.012Z,59.57
2018-07-11T01:07:48.514Z,60.42
2018-07-11T01:10:20.461Z,61.35
2018-07-11T01:12:51.903Z,61.18
2018-07-11T01:15:23.829Z,61.87
2018-07-11T01:18:05.414Z,62.54
2018-07-11T01:20:36.939Z,62.89
2018-07-11T01:23:08.954Z,62.34
2018-07-11T01:25:40.247Z,63.38
2018-07-11T01:28:12.278Z,63.54
2018-07-11T01:30:43.111Z,65.25
2018-07-11T01:33:14.353Z,65.25
2018-07-11T01:35:45.731Z,65.64
2018-07-11T01:38:16.583Z,66.19
2018-07-11T01:40:47.815Z,65.61
2018-07-11T01:43:19.100Z,66.71
2018-07-11T01:45:50.495Z,66.91
2018-07-11T01:48:22.050Z,67.42
2018-07-11T01:50:54.151Z,67.64
2018-07-11T01:53:25.823Z,67.15
2018-07-11T01:56:07.226Z,67.60
2018-07-11T02:01:44.089Z,67.32
2018-07-11T02:04:36.132Z,67.86
2018-07-11T02:07:08.670Z,68.93
2018-07-11T02:09:40.234Z,68.78
2018-07-11T02:12:21.681Z,70.38
2018-07-11T02:14:58.500Z,71.65
2018-07-11T02:17:29.956Z,71.68
2018-07-11T02:20:07.348Z,72.92
2018-07-11T02:22:40.395Z,72.77
2018-07-11T02:25:13.404Z,72.74
2018-07-11T02:27:46.319Z,74.60
2018-07-11T02:30:18.510Z,75.99
2018-07-11T02:32:50.000Z,76.69
2018-07-11T02:35:21.617Z,76.03
2018-07-11T02:38:53.062Z,77.04
2018-07-11T02:41:26.857Z,74.98
2018-07-11T02:43:58.577Z,75.90
2018-07-11T02:46:35.223Z,74.65
2018-07-11T02:49:06.814Z,74.25
2018-07-11T02:51:53.389Z,74.44
2018-07-11T02:54:24.347Z,74.87
2018-07-11T02:57:01.632Z,74.85
2018-07-11T02:59:33.158Z,75.84
2018-07-11T03:02:04.603Z,75.37
2018-07-11T03:04:35.940Z,75.23
2018-07-11T03:07:08.190Z,76.13
2018-07-11T03:09:41.763Z,76.15
2018-07-11T03:12:13.476Z,75.93
2018-07-11T03:14:50.284Z,77.66
2018-07-11T03:17:22.733Z,77.16
2018-07-11T03:19:54.062Z,78.61
2018-07-11T03:22:25.506Z,78.29
2018-07-11T03:24:56.769Z,79.64
2018-07-11T03:27:28.243Z,79.12
2018-07-11T03:30:04.705Z,78.85
2018-07-11T03:32:40.649Z,78.94
2018-07-11T03:35:12.374Z,80.03
2018-07-11T03:37:43.951Z,79.82
2018-07-11T03:40:26.950Z,78.30
2018-07-11T03:43:09.577Z,78.83
2018-07-11T03:45:41.455Z,78.76
2018-07-11T03:48:12.667Z,78.05
2018-07-11T03:50:44.252Z,78.54
2018-07-11T03:53:16.351Z,78.89
2018-07-11T03:56:22.116Z,80.19
2018-07-11T03:58:59.544Z,80.39
2018-07-11T04:01:32.375Z,81.83
2018-07-11T04:04:58.083Z,82.36
2018-07-11T04:08:12.663Z,81.62
2018-07-11T04:10:48.865Z,81.42
2018-07-11T04:13:29.885Z,80.55
2018-07-11T04:16:14.786Z,81.06
2018-07-11T04:19:12.270Z,80.54
2018-07-11T04:21:57.504Z,80.68
2018-07-11T04:25:04.378Z,79.51
2018-07-11T04:28:34.016Z,78.85
2018-07-11T04:31:27.447Z,77.82
2018-07-11T04:34:04.187Z,78.27
2018-07-11T04:36:35.522Z,78.18
2018-07-11T04:39:20.701Z,78.90
2018-07-11T04:41:54.653Z,77.75
2018-07-11T04:44:37.636Z,78.31
2018-07-11T04:47:14.101Z,78.90
2018-07-11T04:49:45.779Z,78.17
2018-07-11T04:52:18.391Z,78.38
2018-07-11T04:54:50.612Z,76.83
2018-07-11T04:57:22.322Z,75.12
2018-07-11T04:59:53.936Z,75.28
2018-07-11T05:02:25.475Z,78.02
2018-07-11T05:05:15.623Z,77.05
2018-07-11T05:07:55.003Z,77.69
2018-07-11T05:10:28.590Z,77.92
2018-07-11T05:13:12.239Z,77.96
2018-07-11T05:15:47.456Z,77.68
2018-07-11T05:18:19.187Z,78.85
2018-07-11T05:20:50.754Z,81.89
2018-07-11T05:23:33.570Z,82.21
2018-07-11T05:26:05.594Z,83.05
2018-07-11T05:28:38.034Z,82.37
2018-07-11T05:31:12.216Z,85.26
2018-07-11T05:33:43.755Z,86.59
2018-07-11T05:36:15.551Z,86.74
2018-07-11T05:38:47.433Z,87.74
2018-07-11T05:41:19.734Z,85.31
2018-07-11T05:43:51.423Z,86.53
2018-07-11T05:46:22.988Z,86.50
2018-07-11T05:48:55.384Z,84.00
2018-07-11T05:52:26.202Z,86.17
2018-07-11T05:55:43.996Z,85.82
2018-07-11T06:02:32.053Z,84.92
2018-07-11T06:05:07.803Z,82.81
2018-07-11T06:07:46.398Z,82.67
2018-07-11T06:10:18.037Z,82.05
2018-07-11T06:12:50.467Z,82.18
2018-07-11T06:15:37.801Z,83.90
2018-07-11T06:18:25.401Z,84.57
2018-07-11T06:20:56.877Z,84.47
2018-07-11T06:23:43.459Z,84.48
2018-07-11T06:26:19.124Z,85.45
2018-07-11T06:28:50.650Z,85.37
2018-07-11T06:31:22.541Z,83.28
2018-07-11T06:33:59.439Z,80.38
2018-07-11T06:36:30.934Z,81.13
2018-07-11T06:39:02.493Z,78.25
2018-07-11T06:41:34.006Z,78.95
2018-07-11T06:45:24.562Z,80.28
2018-07-11T06:47:58.880Z,79.07
2018-07-11T06:50:30.326Z,75.89
2018-07-11T06:53:01.867Z,75.13
2018-07-11T06:55:33.302Z,74.54
2018-07-11T06:58:40.019Z,71.96
2018-07-11T07:01:15.575Z,69.65
2018-07-11T07:03:47.098Z,72.76
2018-07-11T07:06:19.916Z,69.65
2018-07-11T07:08:51.530Z,70.79
2018-07-11T07:11:23.107Z,69.21
2018-07-11T07:13:54.640Z,69.19
2018-07-11T07:16:26.062Z,69.74
2018-07-11T07:18:57.719Z,70.64
2018-07-11T07:21:29.313Z,72.10
2018-07-11T07:24:00.977Z,70.24
2018-07-11T07:26:32.646Z,69.50
2018-07-11T07:29:04.134Z,66.89
2018-07-11T07:31:35.148Z,67.60
2018-07-11T07:34:07.265Z,71.52
2018-07-11T07:36:38.489Z,70.15
2018-07-11T12:31:22.278Z,42.94
2018-07-11T12:33:54.230Z,44.62
2018-07-11T12:36:52.598Z,44.97
2018-07-11T13:09:00.016Z,44.71
2018-07-11T13:11:36.819Z,45.09
2018-07-11T13:14:08.575Z,45.75
2018-07-11T13:16:40.613Z,44.72
2018-07-11T13:19:12.047Z,43.91
2018-07-11T13:21:43.691Z,45.07
2018-07-11T13:24:15.427Z,45.52
2018-07-11T13:26:47.041Z,44.70
2018-07-11T13:29:19.198Z,44.71
2018-07-11T13:31:50.863Z,44.52
2018-07-11T13:34:22.716Z,44.38
2018-07-11T13:36:54.142Z,44.89
2018-07-11T13:39:26.226Z,45.32
2018-07-11T13:41:58.206Z,44.29
2018-07-11T13:44:29.670Z,45.59
2018-07-11T13:47:01.263Z,46.67
2018-07-11T13:49:33.030Z,46.55
2018-07-11T13:52:05.487Z,45.49
2018-07-11T13:54:37.231Z,45.97
2018-07-11T13:57:08.988Z,48.02
2018-07-11T13:59:40.851Z,48.13
2018-07-11T14:02:12.489Z,47.62
2018-07-11T14:04:43.899Z,49.08
2018-07-11T14:07:15.897Z,48.06
2018-07-11T14:09:47.644Z,46.82
2018-07-11T14:12:18.636Z,47.96
2018-07-11T14:14:50.141Z,48.56
2018-07-11T14:17:21.670Z,49.67
2018-07-11T14:19:53.053Z,50.33
2018-07-11T14:22:24.620Z,51.01
2018-07-11T14:24:56.639Z,50.66
2018-07-11T14:27:29.169Z,50.64
2018-07-11T14:30:03.297Z,51.19
2018-07-11T14:32:35.064Z,49.54
2018-07-11T14:35:06.903Z,49.88
2018-07-11T14:37:39.414Z,49.64
2018-07-11T14:40:11.783Z,49.89
2018-07-11T14:42:44.492Z,51.80
2018-07-11T14:45:20.745Z,51.57
2018-07-11T14:48:02.437Z,51.62
2018-07-11T14:50:34.107Z,51.01
2018-07-11T14:53:06.804Z,52.47
2018-07-11T14:55:38.372Z,51.38
2018-07-11T14:58:09.997Z,52.32
2018-07-11T15:00:41.640Z,53.06
2018-07-11T15:03:13.114Z,53.82
2018-07-11T15:05:44.802Z,52.51
2018-07-11T15:08:16.688Z,52.79
2018-07-11T15:10:48.316Z,53.56
2018-07-11T15:13:19.889Z,52.79
2018-07-11T15:15:51.454Z,53.91
2018-07-11T15:18:22.918Z,53.48
2018-07-11T15:20:54.260Z,52.37
2018-07-11T15:23:26.026Z,52.75
2018-07-11T15:25:57.875Z,52.56
2018-07-11T15:28:29.443Z,52.73
2018-07-11T15:31:01.037Z,54.37
2018-07-11T15:33:33.780Z,54.75
2018-07-11T15:36:05.650Z,55.32
2018-07-11T15:38:37.278Z,55.31
2018-07-11T15:41:09.342Z,55.01
2018-07-11T15:43:43.066Z,53.55
2018-07-11T15:46:14.875Z,53.31
2018-07-11T15:53:01.643Z,54.62
2018-07-11T15:55:35.191Z,54.98
2018-07-11T15:58:15.384Z,55.08
2018-07-11T16:00:47.295Z,54.34
2018-07-11T16:03:20.655Z,56.26
2018-07-11T16:05:52.830Z,56.79
2018-07-11T16:08:29.018Z,55.83
2018-07-11T16:11:04.276Z,55.86
2018-07-11T16:13:37.129Z,56.81
2018-07-11T16:16:21.603Z,57.21
2018-07-11T16:18:53.363Z,57.59
2018-07-11T16:21:45.029Z,57.66
2018-07-11T16:24:17.957Z,58.26
2018-07-11T16:26:49.771Z,57.99
2018-07-11T16:29:21.457Z,58.54
2018-07-11T16:31:52.970Z,58.51
2018-07-11T16:34:24.770Z,59.29
2018-07-11T16:36:56.676Z,58.83
2018-07-11T16:39:28.520Z,58.69
2018-07-11T16:42:00.798Z,59.94
2018-07-11T16:44:33.109Z,59.72
2018-07-11T16:47:06.282Z,59.83
2018-07-11T16:49:41.939Z,60.66
2018-07-11T16:52:13.824Z,60.22
2018-07-11T16:54:56.368Z,61.34
2018-07-11T16:57:35.606Z,61.87
2018-07-11T17:00:09.691Z,62.02
2018-07-11T17:02:44.863Z,61.37
2018-07-11T17:05:22.769Z,61.25
2018-07-11T17:08:00.662Z,61.07
2018-07-11T17:10:32.966Z,60.81
2018-07-11T17:13:14.385Z,61.29
2018-07-11T17:15:51.199Z,60.81
2018-07-11T17:18:48.959Z,61.43
2018-07-11T17:21:58.204Z,61.63
2018-07-11T17:24:30.803Z,61.75
2018-07-11T17:27:02.680Z,63.04
2018-07-11T17:29:34.547Z,63.18
2018-07-11T17:32:09.947Z,63.53
2018-07-11T17:34:41.660Z,63.88
2018-07-11T17:37:13.424Z,65.00
2018-07-11T17:39:57.347Z,65.17
2018-07-11T17:42:30.395Z,64.53
2018-07-11T17:45:17.783Z,64.76
2018-07-11T17:50:06.138Z,65.80
2018-07-11T17:52:54.594Z,66.62
2018-07-11T17:55:36.161Z,65.10
2018-07-11T17:58:10.118Z,65.62
2018-07-11T18:00:46.786Z,65.15
2018-07-11T18:04:08.240Z,64.55
2018-07-11T18:07:29.327Z,64.02
2018-07-11T18:10:07.835Z,64.20
2018-07-11T18:15:12.073Z,64.56
2018-07-11T18:20:19.518Z,63.96
2018-07-11T18:23:12.709Z,64.79
2018-07-11T18:26:07.442Z,63.50
2018-07-11T18:28:52.450Z,64.37
2018-07-11T18:32:09.972Z,63.65
2018-07-11T18:37:02.530Z,63.65
2018-07-11T18:39:47.210Z,63.65
2018-07-11T18:42:54.102Z,63.10
2018-07-11T18:45:44.920Z,62.43
2018-07-11T18:49:32.279Z,63.04
2018-07-11T18:54:29.807Z,63.77
2018-07-11T19:05:13.516Z,65.12
2018-07-11T19:07:59.229Z,65.79
2018-07-11T19:11:48.333Z,66.73
2018-07-11T19:14:37.376Z,67.11
2018-07-11T19:17:37.847Z,66.77
2018-07-11T19:20:32.787Z,67.70
2018-07-11T19:33:16.385Z,67.21
2018-07-11T19:36:13.707Z,69.34
2018-07-11T19:39:02.882Z,69.67
2018-07-11T19:43:52.793Z,69.00
2018-07-11T19:47:22.197Z,70.34
2018-07-11T19:51:12.714Z,70.45
2018-07-11T19:54:00.971Z,70.43
2018-07-11T19:56:48.911Z,71.26
2018-07-11T19:59:20.327Z,71.30
2018-07-11T20:01:51.747Z,70.53
2018-07-11T20:04:23.325Z,71.39
2018-07-11T20:06:55.030Z,71.65
2018-07-11T20:09:26.698Z,71.21
2018-07-11T20:11:58.909Z,72.18
2018-07-11T20:14:31.177Z,72.46
2018-07-11T20:17:02.946Z,72.89
2018-07-11T20:19:34.524Z,72.38
2018-07-11T20:22:06.015Z,72.61
2018-07-11T20:24:37.605Z,73.50
2018-07-11T20:27:31.865Z,72.90
2018-07-11T20:30:04.165Z,73.67
2018-07-11T20:32:36.348Z,74.33
2018-07-11T20:35:08.043Z,74.88
2018-07-11T20:37:39.932Z,75.41
2018-07-11T20:40:11.493Z,75.31
2018-07-11T20:42:43.002Z,75.57
2018-07-11T20:45:17.744Z,75.81
2018-07-11T20:47:49.360Z,76.41
2018-07-11T20:50:21.723Z,77.05
2018-07-11T20:52:58.094Z,77.68
2018-07-11T20:55:30.164Z,77.52
2018-07-11T20:58:17.757Z,78.56
2018-07-11T21:01:05.626Z,78.71
2018-07-11T21:03:59.685Z,78.77
2018-07-11T21:16:48.276Z,79.28
2018-07-11T21:19:25.676Z,83.28
2018-07-11T21:21:59.590Z,83.06
2018-07-11T21:24:30.966Z,82.59
2018-07-11T21:27:02.532Z,82.61
2018-07-11T21:29:34.736Z,83.29
2018-07-11T21:32:05.662Z,82.78
2018-07-11T21:34:36.897Z,82.65
2018-07-11T21:37:10.605Z,83.19
2018-07-11T21:39:41.943Z,84.01
2018-07-11T21:42:14.447Z,83.43
2018-07-11T21:44:46.905Z,84.37
2018-07-11T21:47:18.413Z,84.18
2018-07-11T21:49:50.343Z,83.81
2018-07-11T21:52:22.661Z,84.27
2018-07-11T21:54:53.865Z,84.73
2018-07-11T21:57:25.180Z,84.05
2018-07-11T21:59:56.899Z,84.26
2018-07-11T22:02:28.531Z,84.68
2018-07-11T22:05:00.254Z,85.44
2018-07-11T22:07:33.630Z,84.53
2018-07-11T22:10:05.830Z,85.17
2018-07-11T22:12:37.211Z,84.44
2018-07-11T22:15:08.519Z,84.94
2018-07-11T22:18:54.531Z,83.96
2018-07-11T22:21:24.127Z,84.74
2018-07-11T22:23:53.062Z,85.91
2018-07-11T22:26:21.853Z,85.85
2018-07-11T22:28:50.639Z,86.30
2018-07-11T22:31:19.407Z,86.42
2018-07-11T22:33:48.219Z,84.45
2018-07-11T22:36:16.929Z,84.60
2018-07-11T22:38:45.695Z,84.03
2018-07-11T22:41:14.469Z,85.22
2018-07-11T22:43:43.234Z,85.37
2018-07-11T22:46:11.969Z,85.92
2018-07-11T22:48:40.727Z,85.24
2018-07-11T22:51:09.572Z,86.54
2018-07-11T22:53:38.546Z,85.25
2018-07-11T22:56:07.230Z,86.05
2018-07-11T22:58:35.942Z,85.65
2018-07-11T23:01:04.895Z,86.91
2018-07-11T23:03:33.560Z,87.11
2018-07-11T23:06:02.632Z,87.66
2018-07-11T23:08:31.876Z,87.75
2018-07-11T23:11:00.738Z,87.95
2018-07-11T23:13:29.531Z,88.02
2018-07-11T23:15:59.140Z,88.29
2018-07-11T23:18:27.909Z,89.46
2018-07-11T23:20:58.266Z,89.71
2018-07-11T23:23:27.047Z,89.05
2018-07-11T23:25:55.981Z,89.98
2018-07-11T23:28:24.711Z,89.39
2018-07-11T23:30:53.460Z,90.34
2018-07-11T23:33:22.221Z,90.62
2018-07-11T23:35:51.008Z,91.42
2018-07-11T23:38:19.736Z,91.77
2018-07-11T23:40:48.508Z,91.22
2018-07-11T23:43:17.385Z,91.83
2018-07-11T23:45:46.199Z,91.99
2018-07-11T23:48:15.270Z,93.04
2018-07-11T23:50:43.919Z,93.17
2018-07-11T23:53:12.648Z,92.37
2018-07-11T23:55:41.493Z,92.84
2018-07-11T23:58:10.230Z,93.95
